createdAt,value
2023-04-29T00:01:39.396Z,100840.16
2023-04-29T00:04:10.857Z,100841.84
2023-04-29T00:06:44.002Z,100850.56
2023-04-29T00:09:15.348Z,100845.47
2023-04-29T00:11:48.421Z,100845.56
2023-04-29T00:14:19.819Z,100843.09
2023-04-29T00:16:53.029Z,100838.84
2023-04-29T00:19:24.512Z,100833.72
2023-04-29T00:21:56.535Z,100827.13
2023-04-29T00:24:31.064Z,100820.41
2023-04-29T00:27:02.708Z,100830.06
2023-04-29T00:29:33.998Z,100823.28
2023-04-29T00:32:07.132Z,100819.88
2023-04-29T00:34:38.672Z,100824.28
2023-04-29T00:37:10.215Z,100821.94
2023-04-29T00:39:41.618Z,100814.38
2023-04-29T00:42:13.915Z,100806.72
2023-04-29T00:44:45.541Z,100812.06
2023-04-29T00:47:18.537Z,100810.31
2023-04-29T00:49:50.235Z,100808.63
2023-04-29T00:52:22.463Z,100772.94
2023-04-29T00:54:55.776Z,100810.53
2023-04-29T00:57:30.251Z,100817.66
2023-04-29T01:00:02.617Z,100817.84
2023-04-29T01:02:36.348Z,100806.72
2023-04-29T01:05:08.880Z,100811.88
2023-04-29T01:07:49.281Z,100806.75
2023-04-29T01:10:30.476Z,100806.94
2023-04-29T01:13:11.246Z,100801.69
2023-04-29T01:15:50.792Z,100808.56
2023-04-29T01:18:29.518Z,100812.06
2023-04-29T01:21:03.013Z,100806.09
2023-04-29T01:23:36.262Z,100808.78
2023-04-29T01:26:09.437Z,100803.59
2023-04-29T01:28:51.513Z,100808.81
2023-04-29T01:31:28.957Z,100792.41
2023-04-29T01:34:11.679Z,100788.97
2023-04-29T01:36:56.729Z,100791.63
2023-04-29T01:39:36.710Z,100798.56
2023-04-29T01:42:18.799Z,100784.00
2023-04-29T01:44:57.763Z,100777.13
2023-04-29T01:47:30.788Z,100774.56
2023-04-29T01:50:03.529Z,100773.81
2023-04-29T01:52:35.127Z,100772.13
2023-04-29T01:55:12.499Z,100761.75
2023-04-29T01:57:44.174Z,100755.72
2023-04-29T02:00:16.596Z,100755.81
2023-04-29T02:02:48.558Z,100766.25
2023-04-29T02:05:20.204Z,100759.34
2023-04-29T02:07:51.714Z,100754.13
2023-04-29T02:10:25.233Z,100752.44
2023-04-29T02:12:56.975Z,100747.22
2023-04-29T02:15:31.086Z,100742.00
2023-04-29T02:18:02.941Z,100743.72
2023-04-29T02:20:34.666Z,100729.81
2023-04-29T02:23:06.246Z,100723.72
2023-04-29T02:25:39.812Z,100726.28
2023-04-29T02:28:10.629Z,100730.59
2023-04-29T02:30:41.240Z,100730.63
2023-04-29T02:33:11.925Z,100729.72
2023-04-29T02:35:42.410Z,100631.63
2023-04-29T02:38:13.039Z,100679.41
2023-04-29T02:40:48.751Z,100712.47
2023-04-29T02:43:19.327Z,100719.41
2023-04-29T02:45:49.921Z,100711.66
2023-04-29T02:48:20.560Z,100705.63
2023-04-29T02:50:51.190Z,100696.97
2023-04-29T02:53:21.779Z,100686.56
2023-04-29T02:55:59.384Z,100689.13
2023-04-29T02:58:33.842Z,100683.94
2023-04-29T03:01:05.992Z,100679.63
2023-04-29T03:03:37.480Z,100676.16
2023-04-29T03:06:08.897Z,100671.81
2023-04-29T03:08:40.765Z,100662.28
2023-04-29T03:11:13.842Z,100660.56
2023-04-29T03:13:44.385Z,100657.03
2023-04-29T03:16:18.178Z,100650.97
2023-04-29T03:18:48.796Z,100653.53
2023-04-29T03:21:19.631Z,100653.50
2023-04-29T03:23:50.462Z,100653.44
2023-04-29T03:26:23.560Z,100662.22
2023-04-29T03:28:54.470Z,100650.09
2023-04-29T03:31:25.360Z,100653.63
2023-04-29T03:33:58.878Z,100649.28
2023-04-29T03:36:29.794Z,100642.31
2023-04-29T03:39:00.334Z,100655.31
2023-04-29T03:41:32.620Z,100657.91
2023-04-29T03:44:03.335Z,100648.38
2023-04-29T03:46:33.988Z,100651.84
2023-04-29T03:49:04.820Z,100653.59
2023-04-29T03:51:35.556Z,100640.59
2023-04-29T03:54:06.039Z,100644.91
2023-04-29T03:56:38.238Z,100646.69
2023-04-29T03:59:08.797Z,100633.66
2023-04-29T04:01:39.579Z,100633.63
2023-04-29T04:04:10.256Z,100643.16
2023-04-29T04:06:40.957Z,100641.47
2023-04-29T04:09:11.432Z,100634.53
2023-04-29T04:11:43.538Z,100639.72
2023-04-29T04:14:14.088Z,100625.84
2023-04-29T04:16:44.646Z,100612.81
2023-04-29T04:19:15.740Z,100627.56
2023-04-29T04:21:46.268Z,100622.34
2023-04-29T04:24:18.819Z,100624.97
2023-04-29T04:26:51.006Z,100611.97
2023-04-29T04:29:21.725Z,100622.34
2023-04-29T04:31:52.829Z,100618.84
2023-04-29T04:34:23.534Z,100611.81
2023-04-29T04:36:54.132Z,100570.13
2023-04-29T04:39:24.701Z,100589.94
2023-04-29T04:41:56.918Z,100601.19
2023-04-29T04:44:31.158Z,100596.00
2023-04-29T04:47:02.130Z,100592.50
2023-04-29T04:49:32.852Z,100587.28
2023-04-29T04:52:03.468Z,100587.28
2023-04-29T04:54:34.238Z,100589.13
2023-04-29T04:57:06.929Z,100581.25
2023-04-29T04:59:40.621Z,100575.22
2023-04-29T05:02:11.259Z,100581.34
2023-04-29T05:04:41.877Z,100569.13
2023-04-29T05:07:12.376Z,100570.88
2023-04-29T05:09:42.946Z,100544.03
2023-04-29T05:12:15.186Z,100568.19
2023-04-29T05:14:45.746Z,100560.44
2023-04-29T05:17:16.686Z,100561.41
2023-04-29T05:19:47.244Z,100551.06
2023-04-29T05:22:18.234Z,100556.31
2023-04-29T05:24:49.405Z,100561.53
2023-04-29T05:27:21.619Z,100556.34
2023-04-29T05:29:52.365Z,100556.38
2023-04-29T05:32:23.160Z,100553.81
2023-04-29T05:34:53.897Z,100545.09
2023-04-29T05:37:24.535Z,100541.63
2023-04-29T05:39:55.195Z,100544.25
2023-04-29T05:42:28.152Z,100539.03
2023-04-29T05:44:58.671Z,100523.41
2023-04-29T05:47:29.345Z,100539.03
2023-04-29T05:49:59.987Z,100533.81
2023-04-29T05:52:30.494Z,100526.88
2023-04-29T05:55:01.261Z,100530.34
2023-04-29T05:57:33.680Z,100526.88
2023-04-29T06:00:05.238Z,100499.94
2023-04-29T06:02:39.402Z,100501.59
2023-04-29T06:05:16.298Z,100512.81
2023-04-29T06:07:47.441Z,100502.31
2023-04-29T06:10:18.114Z,100505.75
2023-04-29T06:12:52.394Z,100503.97
2023-04-29T06:15:23.029Z,100458.88
2023-04-29T06:17:54.494Z,100498.72
2023-04-29T06:20:25.121Z,100491.75
2023-04-29T06:22:55.668Z,100493.44
2023-04-29T06:25:26.192Z,100491.84
2023-04-29T06:28:00.529Z,100502.28
2023-04-29T06:30:31.053Z,100499.72
2023-04-29T06:33:01.732Z,100507.56
2023-04-29T06:35:32.497Z,100473.84
2023-04-29T06:38:03.095Z,100506.72
2023-04-29T06:40:33.593Z,100512.78
2023-04-29T06:43:05.761Z,100511.91
2023-04-29T06:45:36.267Z,100507.50
2023-04-29T06:48:07.089Z,100488.41
2023-04-29T06:50:38.531Z,100484.91
2023-04-29T06:53:11.868Z,100493.59
2023-04-29T06:55:42.422Z,100490.09
2023-04-29T06:58:14.824Z,100500.53
2023-04-29T07:00:48.031Z,100458.91
2023-04-29T07:03:19.414Z,100498.78
2023-04-29T07:05:50.179Z,100484.91
2023-04-29T07:08:20.698Z,100486.69
2023-04-29T07:10:58.093Z,100482.31
2023-04-29T07:13:31.151Z,100479.78
2023-04-29T07:16:01.706Z,100474.59
2023-04-29T07:18:32.274Z,100471.13
2023-04-29T07:21:05.077Z,100469.41
2023-04-29T07:23:35.787Z,100475.53
2023-04-29T07:26:13.311Z,100466.91
2023-04-29T07:28:46.555Z,100472.09
2023-04-29T07:31:18.479Z,100467.84
2023-04-29T07:33:51.268Z,100478.28
2023-04-29T07:36:21.989Z,100469.59
2023-04-29T07:38:52.641Z,100472.22
2023-04-29T07:41:23.301Z,100470.53
2023-04-29T07:43:56.355Z,100466.25
2023-04-29T07:46:26.976Z,100460.22
2023-04-29T07:48:57.557Z,100459.31
2023-04-29T07:51:29.765Z,100454.16
2023-04-29T07:54:01.233Z,100455.03
2023-04-29T07:56:31.946Z,100445.53
2023-04-29T07:59:05.356Z,100448.09
2023-04-29T08:01:35.826Z,100452.44
2023-04-29T08:04:08.716Z,100454.13
2023-04-29T08:06:39.516Z,100460.19
2023-04-29T08:09:10.117Z,100459.28
2023-04-29T08:11:40.894Z,100457.56
2023-04-29T08:14:13.001Z,100455.78
2023-04-29T08:16:43.601Z,100459.19
2023-04-29T08:19:14.752Z,100467.81
2023-04-29T08:21:45.155Z,100482.53
2023-04-29T08:24:16.084Z,100470.38
2023-04-29T08:26:46.592Z,100469.53
2023-04-29T08:29:19.323Z,100466.91
2023-04-29T08:31:49.922Z,100467.81
2023-04-29T08:34:20.503Z,100467.97
2023-04-29T08:36:51.009Z,100465.28
2023-04-29T08:39:21.531Z,100466.09
2023-04-29T08:41:52.950Z,100468.75
2023-04-29T08:44:25.243Z,100461.81
2023-04-29T08:46:56.475Z,100446.16
2023-04-29T08:49:27.392Z,100457.44
2023-04-29T08:51:57.927Z,100455.72
2023-04-29T08:54:29.305Z,100452.22
2023-04-29T08:57:01.540Z,100453.91
2023-04-29T08:59:34.162Z,100448.63
2023-04-29T09:02:11.510Z,100454.69
2023-04-29T09:04:51.233Z,100459.00
2023-04-29T09:07:34.503Z,100459.06
2023-04-29T09:10:08.907Z,100438.16
2023-04-29T09:12:46.995Z,100464.22
2023-04-29T09:15:22.236Z,100459.00
2023-04-29T09:17:52.976Z,100447.63
2023-04-29T09:20:30.941Z,100458.03
2023-04-29T09:23:07.468Z,100447.63
2023-04-29T09:25:38.142Z,100457.19
2023-04-29T09:29:00.138Z,100438.13
2023-04-29T09:31:46.718Z,100429.41
2023-04-29T09:34:18.009Z,100448.47
2023-04-29T09:36:53.144Z,100405.97
2023-04-29T09:39:27.437Z,100436.25
2023-04-29T09:42:04.185Z,100427.59
2023-04-29T09:44:37.907Z,100436.25
2023-04-29T09:47:12.559Z,100417.16
2023-04-29T09:49:45.872Z,100429.25
2023-04-29T09:52:21.744Z,100402.34
2023-04-29T09:54:52.492Z,100436.13
2023-04-29T09:57:26.398Z,100402.25
2023-04-29T09:59:58.016Z,100422.13
2023-04-29T10:02:31.063Z,100411.63
2023-04-29T10:05:05.659Z,100348.19
2023-04-29T10:07:39.207Z,100444.16
2023-04-29T10:10:13.270Z,100437.81
2023-04-29T10:12:46.023Z,100464.44
2023-04-29T10:15:23.689Z,100448.91
2023-04-29T10:18:02.791Z,100427.03
2023-04-29T10:20:34.118Z,100395.53
2023-04-29T10:23:09.256Z,100460.44
2023-04-29T10:25:41.578Z,100457.66
2023-04-29T10:28:17.234Z,100459.19
2023-04-29T10:30:49.145Z,100468.47
2023-04-29T10:33:21.750Z,100467.38
2023-04-29T10:35:58.322Z,100468.91
2023-04-29T10:38:33.770Z,100461.06
2023-04-29T10:41:11.744Z,100473.00
2023-04-29T10:43:42.660Z,100480.41
2023-04-29T10:46:30.618Z,100477.63
2023-04-29T10:49:05.087Z,100449.47
2023-04-29T10:51:36.486Z,100472.91
2023-04-29T10:54:12.049Z,100478.91
2023-04-29T10:56:44.897Z,100485.69
2023-04-29T10:59:17.004Z,100462.78
2023-04-29T11:01:49.918Z,100494.94
2023-04-29T11:04:23.477Z,100490.66
2023-04-29T11:06:56.504Z,100493.03
2023-04-29T11:09:29.506Z,100457.38
2023-04-29T11:12:06.386Z,100460.97
2023-04-29T11:14:39.648Z,100474.91
2023-04-29T11:17:16.208Z,100497.59
2023-04-29T11:19:53.760Z,100442.81
2023-04-29T11:22:34.545Z,100474.94
2023-04-29T11:25:06.823Z,100480.00
2023-04-29T11:27:41.822Z,100484.16
2023-04-29T11:30:13.488Z,100489.97
2023-04-29T11:32:45.196Z,100476.06
2023-04-29T11:35:18.932Z,100484.38
2023-04-29T11:37:52.622Z,100472.09
2023-04-29T11:40:23.136Z,100485.59
2023-04-29T11:42:53.802Z,100478.66
2023-04-29T11:45:24.308Z,100475.25
2023-04-29T11:47:55.884Z,100459.66
2023-04-29T11:50:28.249Z,100458.69
2023-04-29T11:53:02.182Z,100449.13
2023-04-29T11:55:32.722Z,100445.72
2023-04-29T11:58:03.353Z,100443.97
2023-04-29T12:00:34.389Z,100416.00
2023-04-29T12:03:04.926Z,100431.09
2023-04-29T12:05:37.149Z,100421.66
2023-04-29T12:08:10.389Z,100411.94
2023-04-29T12:10:40.808Z,100434.19
2023-04-29T12:13:12.178Z,100418.69
2023-04-29T12:15:42.924Z,100420.41
2023-04-29T12:18:13.646Z,100422.16
2023-04-29T12:20:45.941Z,100418.69
2023-04-29T12:23:16.972Z,100373.41
2023-04-29T12:25:53.091Z,100397.78
2023-04-29T12:28:24.447Z,100389.91
2023-04-29T12:30:56.304Z,100389.91
2023-04-29T12:33:30.123Z,100393.28
2023-04-29T12:36:02.867Z,100390.75
2023-04-29T12:38:35.743Z,100370.91
2023-04-29T12:41:14.368Z,100383.09
2023-04-29T12:43:44.927Z,100387.44
2023-04-29T12:46:20.040Z,100379.81
2023-04-29T12:48:53.471Z,100367.78
2023-04-29T12:51:25.481Z,100374.59
2023-04-29T12:53:56.155Z,100357.25
2023-04-29T12:56:28.359Z,100367.84
2023-04-29T12:59:08.981Z,100370.59
2023-04-29T13:01:39.624Z,100305.66
2023-04-29T13:04:13.014Z,100349.19
2023-04-29T13:06:47.417Z,100366.38
2023-04-29T13:09:20.903Z,100354.31
2023-04-29T13:11:53.292Z,100351.63
2023-04-29T13:14:24.090Z,100355.94
2023-04-29T13:16:54.514Z,100352.53
2023-04-29T13:19:43.268Z,100355.94
2023-04-29T13:22:19.339Z,100326.25
2023-04-29T13:24:52.731Z,100366.22
2023-04-29T13:27:23.507Z,100362.78
2023-04-29T13:29:54.364Z,100295.81
2023-04-29T13:32:38.110Z,100371.38
2023-04-29T13:35:16.732Z,100370.59
2023-04-29T13:37:48.974Z,100381.78
2023-04-29T13:40:21.801Z,100376.53
2023-04-29T13:43:02.597Z,100382.47
2023-04-29T13:45:39.529Z,100350.25
2023-04-29T13:48:41.760Z,100381.63
2023-04-29T13:54:38.241Z,100368.63
2023-04-29T13:59:36.255Z,100358.44
2023-04-29T14:04:41.599Z,100345.44
2023-04-29T14:07:14.212Z,100342.09
2023-04-29T14:09:48.549Z,100331.75
2023-04-29T14:12:21.847Z,100328.25
2023-04-29T14:14:52.568Z,100326.59
2023-04-29T14:17:23.336Z,100325.78
2023-04-29T14:19:53.994Z,100324.88
2023-04-29T14:22:24.910Z,100307.66
2023-04-29T14:24:57.089Z,100307.66
2023-04-29T14:27:27.587Z,100308.56
2023-04-29T14:29:58.008Z,100306.06
2023-04-29T14:32:28.737Z,100314.75
2023-04-29T14:34:59.408Z,100281.81
2023-04-29T14:37:30.127Z,100316.44
2023-04-29T14:40:02.400Z,100305.19
2023-04-29T14:42:35.262Z,100283.47
2023-04-29T14:45:06.075Z,100295.59
2023-04-29T14:47:36.622Z,100318.06
2023-04-29T14:50:08.131Z,100307.75
2023-04-29T14:52:38.667Z,100312.97
2023-04-29T14:55:11.065Z,100313.88
2023-04-29T14:57:41.860Z,100300.03
2023-04-29T15:00:18.304Z,100296.56
2023-04-29T15:03:03.708Z,100287.00
2023-04-29T15:05:37.380Z,100295.75
2023-04-29T15:08:11.400Z,100300.91
2023-04-29T15:10:47.615Z,100250.50
2023-04-29T15:13:21.009Z,100283.69
2023-04-29T15:15:52.846Z,100286.16
2023-04-29T15:23:18.487Z,100277.41
2023-04-29T15:25:50.744Z,100295.59
2023-04-29T15:47:08.955Z,100250.00
2023-04-29T15:49:42.345Z,100224.88
2023-04-29T15:52:12.916Z,100242.19
2023-04-29T15:54:44.312Z,100231.88
2023-04-29T15:57:19.165Z,100193.72
2023-04-29T15:59:50.065Z,100211.03
2023-04-29T16:30:12.638Z,100135.06
2023-04-29T16:36:34.602Z,100193.91
2023-04-29T16:58:11.401Z,100117.41
2023-04-29T17:00:47.617Z,100107.09
2023-04-29T17:03:18.364Z,100098.53
2023-04-29T17:06:22.279Z,100101.13
2023-04-29T17:08:53.816Z,100066.53
2023-04-29T17:34:59.551Z,100035.78
2023-04-29T17:37:31.253Z,100040.91
2023-04-29T17:40:01.776Z,100032.34
2023-04-29T17:42:32.529Z,100037.53
2023-04-29T17:45:03.052Z,100042.66
2023-04-29T17:47:37.132Z,100035.78
2023-04-29T17:50:07.971Z,100042.66
2023-04-29T17:52:38.487Z,100046.19
2023-04-29T17:55:12.499Z,100034.25
2023-04-29T17:57:43.557Z,100037.63
2023-04-29T18:00:17.709Z,100025.63
2023-04-29T18:02:52.398Z,100024.84
2023-04-29T18:05:23.779Z,99965.94
2023-04-29T18:08:02.641Z,100014.47
2023-04-29T18:10:33.091Z,99998.09
2023-04-29T18:13:08.022Z,100010.25
2023-04-29T18:15:38.656Z,99997.34
2023-04-29T18:18:10.779Z,99982.66
2023-04-29T18:20:44.688Z,99952.25
2023-04-29T18:23:17.958Z,99979.28
2023-04-29T18:25:48.531Z,99965.50
2023-04-29T18:28:23.985Z,99959.50
2023-04-29T18:30:56.518Z,99934.25
2023-04-29T18:33:32.255Z,99960.19
2023-04-29T18:36:05.513Z,99960.25
2023-04-29T18:38:45.801Z,99950.81
2023-04-29T18:41:16.309Z,99951.56
2023-04-29T18:43:46.796Z,99942.19
2023-04-29T18:46:20.461Z,99933.63
2023-04-29T18:48:54.770Z,99935.28
2023-04-29T18:51:25.441Z,99917.28
2023-04-29T18:53:55.926Z,99923.16
2023-04-29T18:56:26.736Z,99889.44
2023-04-29T18:58:59.374Z,99916.31
2023-04-29T19:01:32.688Z,99900.81
2023-04-29T19:04:06.198Z,99875.75
2023-04-29T19:06:43.315Z,99886.13
2023-04-29T19:09:14.397Z,99891.34
2023-04-29T19:11:44.947Z,99877.63
2023-04-29T19:14:15.564Z,99891.34
2023-04-29T19:16:45.946Z,99879.31
2023-04-29T19:19:17.995Z,99860.31
2023-04-29T19:21:48.623Z,99877.69
2023-04-29T19:24:19.245Z,99868.25
2023-04-29T19:26:49.757Z,99877.69
2023-04-29T19:29:20.237Z,99862.22
2023-04-29T19:31:50.759Z,99866.53
2023-04-29T19:34:23.077Z,99861.34
2023-04-29T19:36:59.526Z,99851.06
2023-04-29T19:39:32.673Z,99844.91
2023-04-29T19:42:04.847Z,99858.75
2023-04-29T19:44:37.180Z,99844.09
2023-04-29T19:47:09.926Z,99850.88
2023-04-29T19:49:44.213Z,99822.31
2023-04-29T19:52:14.621Z,99830.19
2023-04-29T19:54:50.191Z,99836.19
2023-04-29T19:57:20.649Z,99815.56
2023-04-29T19:59:51.594Z,99818.97
2023-04-29T20:02:22.194Z,99772.34
2023-04-29T20:04:54.684Z,99816.41
2023-04-29T20:07:25.251Z,99816.38
2023-04-29T20:09:55.965Z,99806.97
2023-04-29T20:12:27.266Z,99803.47
2023-04-29T20:14:58.735Z,99806.97
2023-04-29T20:17:29.372Z,99808.69
2023-04-29T20:20:01.498Z,99804.59
2023-04-29T20:22:32.036Z,99805.34
2023-04-29T20:25:16.021Z,99777.69
2023-04-29T20:27:46.655Z,99794.19
2023-04-29T20:30:17.265Z,99791.59
2023-04-29T20:32:47.984Z,99789.09
2023-04-29T20:35:21.631Z,99778.75
2023-04-29T20:37:52.391Z,99777.94
2023-04-29T20:40:23.181Z,99771.13
2023-04-29T20:42:53.772Z,99759.94
2023-04-29T20:45:24.705Z,99729.81
2023-04-29T20:47:55.384Z,99757.47
2023-04-29T20:50:28.756Z,99746.38
2023-04-29T20:52:59.334Z,99750.69
2023-04-29T20:55:29.960Z,99742.13
2023-04-29T20:58:00.531Z,99725.00
2023-04-29T21:00:31.174Z,99721.56
2023-04-29T21:03:02.398Z,99717.28
2023-04-29T21:05:34.660Z,99715.56
2023-04-29T21:08:05.206Z,99707.88
2023-04-29T21:10:35.748Z,99709.56
2023-04-29T21:13:06.262Z,99682.19
2023-04-29T21:15:37.058Z,99683.03
2023-04-29T21:18:08.182Z,99682.22
2023-04-29T21:20:40.396Z,99663.34
2023-04-29T21:23:10.946Z,99671.13
2023-04-29T21:25:41.588Z,99659.13
2023-04-29T21:28:12.567Z,99658.38
2023-04-29T21:30:43.734Z,99639.47
2023-04-29T21:33:16.962Z,99639.53
2023-04-29T21:35:52.164Z,99639.53
2023-04-29T21:38:22.839Z,99614.63
2023-04-29T21:40:54.170Z,99630.97
2023-04-29T21:43:24.800Z,99619.00
2023-04-29T21:45:58.309Z,99600.06
2023-04-29T21:48:29.671Z,99553.41
2023-04-29T21:51:05.887Z,99618.09
2023-04-29T21:53:36.472Z,99594.06
2023-04-29T21:56:07.604Z,99582.06
2023-04-29T21:58:38.250Z,99583.78
2023-04-29T22:01:27.164Z,99570.97
2023-04-29T22:04:00.015Z,99473.50
2023-04-29T22:06:32.332Z,99555.44
2023-04-29T22:09:02.938Z,99547.03
2023-04-29T22:11:33.522Z,99560.75
2023-04-29T22:14:04.164Z,99552.16
2023-04-29T22:16:34.792Z,99527.13
2023-04-29T22:19:05.455Z,99535.78
2023-04-29T22:21:40.264Z,99535.84
2023-04-29T22:24:11.140Z,99511.72
2023-04-29T22:26:41.596Z,99533.31
2023-04-29T22:29:12.324Z,99523.06
2023-04-29T22:31:42.959Z,99517.91
2023-04-29T22:34:13.612Z,99523.09
2023-04-29T22:36:45.946Z,99405.91
2023-04-29T22:39:16.498Z,99501.69
2023-04-29T22:41:47.230Z,99486.31
2023-04-29T22:44:17.783Z,99473.50
2023-04-29T22:46:48.530Z,99476.16
2023-04-29T22:49:19.004Z,99471.84
2023-04-29T22:51:51.233Z,99466.75
2023-04-29T22:54:24.611Z,99458.16
2023-04-29T22:56:55.120Z,99447.03
2023-04-29T22:59:25.925Z,99474.47
2023-04-29T23:01:56.525Z,99465.06
2023-04-29T23:04:27.110Z,99463.41
2023-04-29T23:06:59.390Z,99460.06
2023-04-29T23:09:30.722Z,99449.78
2023-04-29T23:12:02.331Z,99444.63
2023-04-29T23:14:33.813Z,99430.94
2023-04-29T23:17:04.627Z,99431.88
2023-04-29T23:19:35.382Z,99425.94
2023-04-29T23:22:08.262Z,99425.88
2023-04-29T23:24:38.984Z,99376.84
2023-04-29T23:27:09.550Z,99414.78
2023-04-29T23:29:43.240Z,99420.75
2023-04-29T23:32:13.838Z,99407.00
2023-04-29T23:34:44.556Z,99403.63
2023-04-29T23:37:16.699Z,99395.81
2023-04-29T23:39:47.193Z,99415.63
2023-04-29T23:42:17.973Z,99416.44
2023-04-29T23:44:48.826Z,99374.28
2023-04-29T23:47:19.452Z,99408.78
2023-04-29T23:49:50.131Z,99399.38
2023-04-29T23:52:22.303Z,99398.50
2023-04-29T23:54:53.064Z,99405.34
2023-04-29T23:57:23.625Z,99399.34
2023-04-29T23:59:54.487Z,99396.72
